createdAt,value
2019-01-22T00:01:37.127Z,26.80
2019-01-22T00:04:04.252Z,26.80
2019-01-22T00:06:31.476Z,26.80
2019-01-22T00:09:00.434Z,26.80
2019-01-22T00:11:29.298Z,26.80
2019-01-22T00:13:56.446Z,26.70
2019-01-22T00:16:23.569Z,26.80
2019-01-22T00:18:50.914Z,26.80
2019-01-22T00:21:18.075Z,26.70
2019-01-22T00:23:45.175Z,26.70
2019-01-22T00:26:12.301Z,26.70
2019-01-22T00:28:39.393Z,26.70
2019-01-22T00:31:06.466Z,26.70
2019-01-22T00:33:34.053Z,26.80
2019-01-22T00:36:01.370Z,26.70
2019-01-22T00:38:28.429Z,26.70
2019-01-22T00:40:55.605Z,26.70
2019-01-22T00:43:22.760Z,26.70
2019-01-22T00:45:49.984Z,26.70
2019-01-22T00:48:17.124Z,26.70
2019-01-22T00:50:44.235Z,26.60
2019-01-22T00:53:11.399Z,26.60
2019-01-22T00:55:38.561Z,26.70
2019-01-22T00:58:05.825Z,26.70
2019-01-22T01:00:32.895Z,26.60
2019-01-22T01:03:00.010Z,26.60
2019-01-22T01:05:27.591Z,26.60
2019-01-22T01:07:54.705Z,26.60
2019-01-22T01:10:21.870Z,26.50
2019-01-22T01:12:48.934Z,26.50
2019-01-22T01:15:16.211Z,26.50
2019-01-22T01:17:43.286Z,26.50
2019-01-22T01:20:10.380Z,26.50
2019-01-22T01:22:37.720Z,26.90
2019-01-22T01:25:05.006Z,26.50
2019-01-22T01:27:32.079Z,26.50
2019-01-22T01:29:59.250Z,26.50
2019-01-22T01:32:26.386Z,26.50
2019-01-22T01:34:53.565Z,26.50
2019-01-22T01:37:20.993Z,26.40
2019-01-22T01:39:48.089Z,26.40
2019-01-22T01:42:15.206Z,26.40
2019-01-22T01:44:42.346Z,26.40
2019-01-22T01:47:09.543Z,26.50
2019-01-22T01:49:36.703Z,26.40
2019-01-22T01:52:03.847Z,26.40
2019-01-22T01:54:31.328Z,26.40
2019-01-22T01:56:58.431Z,26.40
2019-01-22T01:59:25.563Z,26.40
2019-01-22T02:01:52.713Z,26.40
2019-01-22T02:04:19.936Z,26.40
2019-01-22T02:06:47.262Z,26.40
2019-01-22T02:09:14.323Z,26.40
2019-01-22T02:11:41.685Z,26.40
2019-01-22T02:14:08.761Z,26.40
2019-01-22T02:16:36.062Z,26.40
2019-01-22T02:19:03.153Z,26.40
2019-01-22T02:21:30.330Z,26.40
2019-01-22T02:23:57.386Z,26.40
2019-01-22T02:26:25.028Z,26.30
2019-01-22T02:28:52.120Z,26.30
2019-01-22T02:31:19.238Z,26.40
2019-01-22T02:33:46.406Z,26.40
2019-01-22T02:36:13.472Z,26.40
2019-01-22T02:38:40.719Z,26.40
2019-01-22T02:41:09.024Z,26.40
2019-01-22T02:43:36.235Z,26.30
2019-01-22T02:46:03.498Z,26.40
2019-01-22T02:48:30.603Z,26.30
2019-01-22T02:50:57.661Z,26.30
2019-01-22T02:53:24.745Z,26.30
2019-01-22T02:55:51.899Z,26.30
2019-01-22T02:58:19.034Z,26.30
2019-01-22T03:00:46.092Z,26.30
2019-01-22T03:03:13.262Z,26.30
2019-01-22T03:05:40.324Z,26.30
2019-01-22T03:08:07.551Z,26.30
2019-01-22T03:10:34.658Z,26.30
2019-01-22T03:13:02.243Z,26.20
2019-01-22T03:15:29.369Z,26.20
2019-01-22T03:17:56.555Z,26.20
2019-01-22T03:20:23.722Z,26.30
2019-01-22T03:22:50.833Z,26.20
2019-01-22T03:25:17.976Z,26.20
2019-01-22T03:27:45.580Z,26.10
2019-01-22T03:30:12.634Z,26.10
2019-01-22T03:32:39.741Z,26.20
2019-01-22T03:35:06.884Z,26.20
2019-01-22T03:37:34.175Z,26.20
2019-01-22T03:40:01.238Z,26.20
2019-01-22T03:42:28.334Z,26.10
2019-01-22T03:44:55.490Z,26.20
2019-01-22T03:47:22.782Z,26.10
2019-01-22T03:49:49.881Z,26.10
2019-01-22T03:52:16.964Z,26.10
2019-01-22T03:54:44.066Z,26.10
2019-01-22T03:57:11.745Z,26.10
2019-01-22T03:59:38.845Z,26.10
2019-01-22T04:02:05.916Z,26.10
2019-01-22T04:04:33.008Z,26.20
2019-01-22T04:07:00.184Z,26.20
2019-01-22T04:09:27.357Z,26.10
2019-01-22T04:11:54.414Z,26.10
2019-01-22T04:14:21.473Z,26.10
2019-01-22T04:16:48.799Z,26.10
2019-01-22T04:19:15.934Z,26.10
2019-01-22T04:21:43.087Z,26.10
2019-01-22T04:24:10.159Z,26.10
2019-01-22T04:26:37.370Z,26.10
2019-01-22T04:29:04.438Z,26.10
2019-01-22T04:31:31.610Z,26.10
2019-01-22T04:33:58.661Z,26.10
2019-01-22T04:36:25.770Z,26.20
2019-01-22T04:38:52.822Z,26.10
2019-01-22T04:41:19.954Z,26.20
2019-01-22T04:43:47.072Z,26.20
2019-01-22T04:46:14.275Z,26.20
2019-01-22T04:48:41.353Z,26.20
2019-01-22T04:51:08.516Z,26.20
2019-01-22T04:53:35.580Z,26.20
2019-01-22T04:56:02.879Z,26.20
2019-01-22T04:58:30.014Z,26.20
2019-01-22T05:00:57.208Z,26.20
2019-01-22T05:03:24.293Z,26.20
2019-01-22T05:05:51.353Z,26.20
2019-01-22T05:08:18.551Z,26.20
2019-01-22T05:10:45.689Z,26.20
2019-01-22T05:13:12.790Z,26.20
2019-01-22T05:15:39.856Z,26.30
2019-01-22T05:18:07.130Z,26.20
2019-01-22T05:20:34.255Z,26.20
2019-01-22T05:23:01.349Z,26.20
2019-01-22T05:25:28.403Z,26.20
2019-01-22T05:27:55.536Z,26.20
2019-01-22T05:30:22.705Z,26.30
2019-01-22T05:32:49.774Z,26.30
2019-01-22T05:35:16.880Z,26.30
2019-01-22T05:37:44.135Z,26.40
2019-01-22T05:40:11.265Z,26.30
2019-01-22T05:42:38.540Z,26.30
2019-01-22T05:45:05.626Z,26.30
2019-01-22T05:47:32.732Z,26.40
2019-01-22T05:50:00.993Z,26.50
2019-01-22T05:52:28.137Z,26.40
2019-01-22T05:54:55.314Z,26.40
2019-01-22T05:57:22.368Z,26.50
2019-01-22T05:59:49.434Z,26.50
2019-01-22T06:02:17.227Z,26.20
2019-01-22T06:04:44.254Z,26.40
2019-01-22T06:07:11.348Z,26.40
2019-01-22T06:09:38.407Z,26.40
2019-01-22T06:12:14.823Z,25.80
2019-01-22T06:14:40.877Z,25.70
2019-01-22T06:17:08.141Z,25.90
2019-01-22T06:19:35.198Z,25.90
2019-01-22T06:22:02.298Z,26.00
2019-01-22T06:24:33.390Z,26.00
2019-01-22T06:26:58.348Z,26.00
2019-01-22T06:29:34.818Z,26.10
2019-01-22T06:32:21.194Z,26.00
2019-01-22T06:34:48.264Z,26.00
2019-01-22T06:37:15.336Z,26.00
2019-01-22T06:39:42.428Z,26.10
2019-01-22T06:42:09.526Z,26.00
2019-01-22T06:44:36.587Z,26.00
2019-01-22T06:47:03.846Z,26.10
2019-01-22T06:49:30.910Z,26.10
2019-01-22T06:51:57.999Z,26.00
2019-01-22T06:54:25.059Z,26.00
2019-01-22T06:56:52.120Z,26.00
2019-01-22T06:59:19.296Z,26.00
2019-01-22T07:01:46.349Z,26.00
2019-01-22T07:04:13.446Z,26.00
2019-01-22T07:06:40.680Z,26.00
2019-01-22T07:09:07.817Z,26.00
2019-01-22T07:11:34.885Z,26.00
2019-01-22T07:14:02.039Z,26.00
2019-01-22T07:16:29.235Z,26.00
2019-01-22T07:18:56.382Z,26.00
2019-01-22T07:21:23.479Z,26.00
2019-01-22T07:23:50.574Z,26.00
2019-01-22T07:26:17.660Z,26.00
2019-01-22T07:28:44.891Z,26.00
2019-01-22T07:31:12.000Z,26.00
2019-01-22T07:33:39.155Z,26.00
2019-01-22T07:36:06.215Z,26.00
2019-01-22T07:38:33.497Z,26.00
2019-01-22T07:41:00.565Z,26.00
2019-01-22T07:43:27.652Z,26.00
2019-01-22T07:45:54.718Z,26.00
2019-01-22T07:48:21.870Z,26.00
2019-01-22T07:50:48.965Z,26.00
2019-01-22T07:53:16.107Z,26.10
2019-01-22T07:55:43.171Z,26.00
2019-01-22T07:58:10.268Z,26.00
2019-01-22T08:00:37.399Z,26.00
2019-01-22T08:03:04.509Z,26.00
2019-01-22T08:05:31.654Z,26.10
2019-01-22T08:07:58.800Z,26.00
2019-01-22T08:10:25.892Z,26.00
2019-01-22T08:12:53.183Z,26.00
2019-01-22T08:15:20.564Z,25.90
2019-01-22T08:17:47.917Z,26.00
2019-01-22T08:20:15.007Z,26.00
2019-01-22T08:22:42.177Z,26.20
2019-01-22T08:25:09.234Z,26.30
2019-01-22T08:27:36.505Z,26.20
2019-01-22T08:30:03.634Z,26.10
2019-01-22T08:32:30.747Z,26.20
2019-01-22T08:34:58.047Z,26.20
2019-01-22T08:37:25.132Z,26.20
2019-01-22T08:39:52.235Z,26.20
2019-01-22T08:42:19.365Z,26.10
2019-01-22T08:44:46.657Z,26.00
2019-01-22T08:47:13.990Z,26.00
2019-01-22T08:49:41.115Z,26.00
2019-01-22T08:52:08.395Z,26.00
2019-01-22T08:54:35.452Z,26.00
2019-01-22T08:57:02.705Z,26.00
2019-01-22T08:59:29.770Z,26.00
2019-01-22T09:01:56.862Z,26.00
2019-01-22T09:04:23.918Z,26.00
2019-01-22T09:06:51.088Z,26.10
2019-01-22T09:09:18.142Z,26.00
2019-01-22T09:11:45.234Z,25.90
2019-01-22T09:14:12.327Z,26.00
2019-01-22T09:16:39.399Z,26.50
2019-01-22T09:19:06.530Z,26.00
2019-01-22T09:21:33.626Z,26.00
2019-01-22T09:24:01.839Z,26.00
2019-01-22T09:26:29.266Z,26.40
2019-01-22T09:28:56.372Z,26.00
2019-01-22T09:31:23.438Z,26.00
2019-01-22T09:33:50.531Z,26.00
2019-01-22T09:36:17.718Z,26.00
2019-01-22T09:38:44.777Z,26.10
2019-01-22T09:41:11.843Z,26.00
2019-01-22T09:43:38.944Z,26.00
2019-01-22T09:46:06.001Z,26.00
2019-01-22T09:48:33.156Z,26.10
2019-01-22T09:51:00.220Z,26.00
2019-01-22T09:53:27.302Z,26.00
2019-01-22T09:56:00.357Z,26.00
2019-01-22T09:58:23.186Z,26.10
2019-01-22T10:00:50.294Z,26.10
2019-01-22T10:03:17.372Z,26.00
2019-01-22T10:05:44.533Z,26.00
2019-01-22T10:08:11.786Z,26.00
2019-01-22T10:10:38.879Z,26.10
2019-01-22T10:13:05.960Z,26.10
2019-01-22T10:15:33.032Z,26.40
2019-01-22T10:18:00.177Z,26.10
2019-01-22T10:20:27.238Z,26.10
2019-01-22T10:22:54.327Z,26.10
2019-01-22T10:25:21.382Z,26.10
2019-01-22T10:27:48.451Z,26.10
2019-01-22T10:30:15.627Z,26.10
2019-01-22T10:32:42.692Z,26.10
2019-01-22T10:35:09.758Z,26.00
2019-01-22T10:37:36.994Z,26.00
2019-01-22T10:40:04.050Z,26.00
2019-01-22T10:42:31.136Z,26.00
2019-01-22T10:44:58.201Z,26.00
2019-01-22T10:47:25.370Z,26.00
2019-01-22T10:49:52.558Z,26.00
2019-01-22T10:52:19.613Z,26.00
2019-01-22T10:54:46.805Z,26.10
2019-01-22T10:57:14.023Z,26.00
2019-01-22T10:59:41.141Z,26.00
2019-01-22T11:02:08.389Z,26.10
2019-01-22T11:04:35.502Z,26.10
2019-01-22T11:07:02.563Z,26.00
2019-01-22T11:09:29.625Z,26.00
2019-01-22T11:11:56.717Z,26.00
2019-01-22T11:14:23.830Z,26.00
2019-01-22T11:16:50.914Z,26.10
2019-01-22T11:19:18.005Z,26.00
2019-01-22T11:21:45.210Z,26.00
2019-01-22T11:24:12.387Z,26.00
2019-01-22T11:26:39.450Z,26.10
2019-01-22T11:29:09.384Z,26.00
2019-01-22T11:31:36.511Z,26.10
2019-01-22T11:34:03.644Z,26.10
2019-01-22T11:36:30.709Z,26.00
2019-01-22T11:38:57.880Z,26.00
2019-01-22T11:41:24.996Z,26.10
2019-01-22T11:43:52.149Z,26.20
2019-01-22T11:46:19.235Z,26.20
2019-01-22T11:48:49.224Z,26.20
2019-01-22T11:51:16.392Z,26.30
2019-01-22T11:53:43.567Z,26.40
2019-01-22T11:56:10.634Z,26.50
2019-01-22T11:58:37.704Z,26.50
2019-01-22T12:01:05.086Z,26.50
2019-01-22T12:03:32.205Z,26.50
2019-01-22T12:05:59.489Z,26.50
2019-01-22T12:08:26.555Z,26.60
2019-01-22T12:10:53.683Z,26.60
2019-01-22T12:13:20.740Z,26.70
2019-01-22T12:15:47.808Z,26.60
2019-01-22T12:18:14.937Z,26.60
2019-01-22T12:20:42.020Z,26.50
2019-01-22T12:23:09.108Z,26.50
2019-01-22T12:25:36.286Z,26.50
2019-01-22T12:28:03.377Z,26.50
2019-01-22T12:30:30.431Z,26.50
2019-01-22T12:32:57.495Z,26.40
2019-01-22T12:35:24.758Z,26.50
2019-01-22T12:37:51.818Z,26.40
2019-01-22T12:40:18.903Z,26.40
2019-01-22T12:42:45.996Z,26.40
2019-01-22T12:45:13.288Z,26.40
2019-01-22T12:47:40.408Z,26.40
2019-01-22T12:50:07.519Z,26.90
2019-01-22T12:52:34.580Z,26.30
2019-01-22T12:55:01.938Z,26.40
2019-01-22T12:57:28.997Z,26.30
2019-01-22T12:59:56.161Z,26.40
2019-01-22T13:02:23.665Z,26.40
2019-01-22T13:04:50.888Z,26.40
2019-01-22T13:07:18.147Z,26.40
2019-01-22T13:09:45.253Z,26.40
2019-01-22T13:12:12.308Z,26.40
2019-01-22T13:14:39.370Z,26.40
2019-01-22T13:17:06.550Z,26.40
2019-01-22T13:19:33.619Z,26.40
2019-01-22T13:22:00.713Z,26.40
2019-01-22T13:24:28.820Z,26.50
2019-01-22T13:26:56.163Z,26.40
2019-01-22T13:29:23.231Z,26.40
2019-01-22T13:31:50.325Z,26.50
2019-01-22T13:34:17.368Z,26.40
2019-01-22T13:36:44.558Z,26.50
2019-01-22T13:39:11.632Z,26.40
2019-01-22T13:41:38.789Z,26.50
2019-01-22T13:44:05.848Z,26.40
2019-01-22T13:46:32.964Z,26.40
2019-01-22T13:49:00.013Z,26.50
2019-01-22T13:51:27.184Z,26.50
2019-01-22T13:53:54.286Z,26.40
2019-01-22T13:56:21.555Z,26.40
2019-01-22T13:58:48.650Z,26.40
2019-01-22T14:01:15.714Z,26.50
2019-01-22T14:03:42.899Z,26.60
2019-01-22T14:06:10.207Z,26.70
2019-01-22T14:08:37.326Z,26.70
2019-01-22T14:11:04.481Z,26.70
2019-01-22T14:13:31.642Z,26.80
2019-01-22T14:15:58.725Z,26.70
2019-01-22T14:18:26.016Z,26.70
2019-01-22T14:20:53.090Z,26.80
2019-01-22T14:23:21.092Z,26.70
2019-01-22T14:25:48.174Z,26.70
2019-01-22T14:28:15.261Z,27.30
2019-01-22T14:30:42.499Z,26.70
2019-01-22T14:33:09.633Z,26.70
2019-01-22T14:35:36.745Z,26.70
2019-01-22T14:38:03.801Z,26.70
2019-01-22T14:40:30.861Z,26.70
2019-01-22T14:42:58.019Z,26.70
2019-01-22T14:45:25.173Z,26.60
2019-01-22T14:47:52.234Z,26.80
2019-01-22T14:50:19.364Z,26.70
2019-01-22T14:52:46.496Z,26.70
2019-01-22T14:55:13.802Z,26.60
2019-01-22T14:57:40.870Z,26.60
2019-01-22T15:00:07.987Z,26.60
2019-01-22T15:02:35.067Z,26.90
2019-01-22T15:05:02.657Z,26.60
2019-01-22T15:07:29.731Z,26.50
2019-01-22T15:09:56.924Z,26.50
2019-01-22T15:12:24.019Z,26.50
2019-01-22T15:14:51.280Z,26.70
2019-01-22T15:17:18.827Z,26.50
2019-01-22T15:19:45.945Z,26.50
2019-01-22T15:22:13.022Z,26.50
2019-01-22T15:24:40.117Z,26.60
2019-01-22T15:27:07.254Z,26.50
2019-01-22T15:29:34.396Z,26.50
2019-01-22T15:32:01.489Z,26.50
2019-01-22T15:34:28.582Z,26.50
2019-01-22T15:36:55.644Z,26.50
2019-01-22T15:39:22.718Z,26.50
2019-01-22T15:41:49.927Z,26.50
2019-01-22T15:44:17.022Z,26.50
2019-01-22T15:46:44.226Z,26.50
2019-01-22T15:49:11.327Z,27.00
2019-01-22T15:51:38.415Z,26.50
2019-01-22T15:54:05.519Z,26.50
2019-01-22T15:56:32.637Z,26.50
2019-01-22T15:58:59.700Z,26.50
2019-01-22T16:01:26.770Z,26.50
2019-01-22T16:03:53.835Z,26.50
2019-01-22T16:06:21.035Z,26.50
2019-01-22T16:08:48.102Z,26.50
2019-01-22T16:11:15.184Z,26.50
2019-01-22T16:13:42.298Z,26.50
2019-01-22T16:16:09.372Z,26.50
2019-01-22T16:18:36.482Z,26.50
2019-01-22T16:21:03.543Z,26.50
2019-01-22T16:23:30.622Z,26.50
2019-01-22T16:25:57.860Z,26.50
2019-01-22T16:28:24.912Z,26.50
2019-01-22T16:30:51.986Z,26.60
2019-01-22T16:33:20.191Z,26.60
2019-01-22T16:35:47.250Z,27.00
2019-01-22T16:38:14.362Z,26.80
2019-01-22T16:40:41.478Z,26.80
2019-01-22T16:43:08.573Z,27.00
2019-01-22T16:45:35.839Z,27.00
2019-01-22T16:48:02.883Z,27.00
2019-01-22T16:50:29.974Z,26.90
2019-01-22T16:52:57.047Z,27.00
2019-01-22T16:55:24.230Z,26.90
2019-01-22T16:57:51.344Z,27.00
2019-01-22T17:00:18.871Z,27.00
2019-01-22T17:02:46.027Z,27.10
2019-01-22T17:05:13.259Z,26.90
2019-01-22T17:07:40.355Z,27.00
2019-01-22T17:10:07.419Z,27.10
2019-01-22T17:12:35.006Z,27.00
2019-01-22T17:15:02.145Z,27.00
2019-01-22T17:17:29.292Z,27.00
2019-01-22T17:19:56.353Z,27.00
2019-01-22T17:22:23.412Z,27.00
2019-01-22T17:24:50.660Z,27.00
2019-01-22T17:27:17.728Z,27.00
2019-01-22T17:29:44.840Z,26.90
2019-01-22T17:32:11.974Z,26.90
2019-01-22T17:34:39.043Z,26.90
2019-01-22T17:37:06.132Z,26.90
2019-01-22T17:39:33.203Z,26.80
2019-01-22T17:42:00.289Z,26.80
2019-01-22T17:44:27.399Z,26.90
2019-01-22T17:46:54.691Z,26.80
2019-01-22T17:49:22.281Z,26.80
2019-01-22T17:51:49.564Z,26.80
2019-01-22T17:54:16.665Z,26.80
2019-01-22T17:56:43.769Z,26.80
2019-01-22T17:59:10.973Z,26.80
2019-01-22T18:01:38.094Z,26.80
2019-01-22T18:04:05.231Z,26.50
2019-01-22T18:06:32.523Z,26.40
2019-01-22T18:08:59.693Z,26.40
2019-01-22T18:11:26.834Z,26.50
2019-01-22T18:13:53.951Z,26.50
2019-01-22T18:16:20.996Z,26.50
2019-01-22T18:18:48.196Z,26.90
2019-01-22T18:21:15.383Z,26.80
2019-01-22T18:23:42.451Z,26.80
2019-01-22T18:26:09.715Z,26.80
2019-01-22T18:28:36.778Z,26.80
2019-01-22T18:31:03.895Z,26.80
2019-01-22T18:33:31.002Z,26.80
2019-01-22T18:35:58.307Z,26.80
2019-01-22T18:38:25.400Z,26.80
2019-01-22T18:40:52.535Z,26.80
2019-01-22T18:43:19.664Z,26.90
2019-01-22T18:45:46.754Z,26.80
2019-01-22T18:48:14.087Z,26.90
2019-01-22T18:50:41.247Z,27.00
2019-01-22T18:53:08.370Z,26.90
2019-01-22T18:55:35.455Z,26.90
2019-01-22T18:58:02.575Z,26.80
2019-01-22T19:00:29.632Z,26.80
2019-01-22T19:02:56.718Z,26.80
2019-01-22T19:05:23.880Z,26.70
2019-01-22T19:07:51.155Z,26.70
2019-01-22T19:10:18.612Z,26.70
2019-01-22T19:12:45.726Z,26.70
2019-01-22T19:15:12.785Z,26.70
2019-01-22T19:17:39.967Z,26.70
2019-01-22T19:20:07.067Z,26.70
2019-01-22T19:22:34.176Z,26.70
2019-01-22T19:25:01.323Z,26.70
2019-01-22T19:27:33.905Z,26.70
2019-01-22T19:29:57.175Z,26.60
2019-01-22T19:32:24.768Z,26.70
2019-01-22T19:35:02.619Z,26.60
2019-01-22T19:37:27.886Z,26.60
2019-01-22T19:39:55.178Z,26.60
2019-01-22T19:42:22.559Z,26.70
2019-01-22T19:44:49.699Z,26.60
2019-01-22T19:47:17.263Z,26.70
2019-01-22T19:49:44.380Z,26.60
2019-01-22T19:52:11.452Z,26.60
2019-01-22T19:54:43.552Z,26.70
2019-01-22T19:57:10.750Z,26.70
2019-01-22T19:59:37.810Z,26.70
2019-01-22T20:02:04.916Z,26.70
2019-01-22T20:04:31.978Z,26.60
2019-01-22T20:06:59.167Z,26.70
2019-01-22T20:09:26.304Z,26.70
2019-01-22T20:11:53.420Z,26.60
2019-01-22T20:14:20.546Z,26.70
2019-01-22T20:16:47.617Z,26.60
2019-01-22T20:19:14.683Z,26.60
2019-01-22T20:21:41.777Z,26.60
2019-01-22T20:24:08.851Z,26.60
2019-01-22T20:26:36.158Z,26.60
2019-01-22T20:29:03.219Z,26.70
2019-01-22T20:31:30.315Z,26.60
2019-01-22T20:33:57.430Z,26.60
2019-01-22T20:36:24.498Z,26.60
2019-01-22T20:38:51.635Z,26.60
2019-01-22T20:41:18.749Z,26.60
2019-01-22T20:43:45.810Z,26.70
2019-01-22T20:46:12.938Z,26.50
2019-01-22T20:48:39.990Z,26.60
2019-01-22T20:51:07.082Z,26.70
2019-01-22T20:53:34.172Z,26.60
2019-01-22T20:56:01.237Z,26.70
2019-01-22T20:58:28.365Z,26.60
2019-01-22T21:00:55.429Z,26.60
2019-01-22T21:03:22.527Z,26.60
2019-01-22T21:05:49.607Z,26.70
2019-01-22T21:08:16.815Z,26.70
2019-01-22T21:10:43.891Z,26.60
2019-01-22T21:13:10.998Z,26.70
2019-01-22T21:15:38.065Z,26.60
2019-01-22T21:18:05.155Z,26.70
2019-01-22T21:20:34.506Z,26.80
2019-01-22T21:23:01.571Z,26.80
2019-01-22T21:25:28.765Z,26.80
2019-01-22T21:28:01.681Z,26.80
2019-01-22T21:30:24.666Z,26.80
2019-01-22T21:32:51.831Z,26.80
2019-01-22T21:35:19.198Z,26.70
2019-01-22T21:37:46.378Z,26.70
2019-01-22T21:40:13.467Z,26.70
2019-01-22T21:42:40.536Z,26.70
2019-01-22T21:45:07.799Z,26.70
2019-01-22T21:47:34.922Z,26.70
2019-01-22T21:50:02.012Z,26.70
2019-01-22T21:52:29.106Z,26.70
2019-01-22T21:54:56.161Z,26.70
2019-01-22T21:57:23.566Z,26.70
2019-01-22T21:59:50.638Z,26.70
2019-01-22T22:02:18.212Z,26.70
2019-01-22T22:04:45.266Z,26.70
2019-01-22T22:07:12.485Z,26.70
2019-01-22T22:09:39.554Z,26.80
2019-01-22T22:12:06.634Z,26.70
2019-01-22T22:14:33.732Z,26.70
2019-01-22T22:17:00.799Z,26.70
2019-01-22T22:19:27.857Z,26.70
2019-01-22T22:21:56.543Z,26.70
2019-01-22T22:24:23.610Z,26.70
2019-01-22T22:26:50.956Z,26.70
2019-01-22T22:29:18.133Z,26.70
2019-01-22T22:31:45.392Z,26.70
2019-01-22T22:34:12.665Z,26.70
2019-01-22T22:36:40.147Z,26.50
2019-01-22T22:42:16.191Z,26.60
2019-01-22T22:44:43.350Z,26.70
2019-01-22T22:47:13.383Z,26.70
2019-01-22T22:49:40.874Z,26.70
2019-01-22T22:52:08.298Z,26.70
2019-01-22T22:57:40.560Z,26.70
2019-01-22T23:00:11.700Z,26.70
2019-01-22T23:05:38.455Z,26.70
2019-01-22T23:08:05.440Z,26.70
2019-01-22T23:10:32.606Z,26.70
2019-01-22T23:12:59.850Z,26.60
2019-01-22T23:15:30.108Z,26.60
2019-01-22T23:17:57.520Z,26.60
2019-01-22T23:20:24.777Z,26.60
2019-01-22T23:22:53.667Z,26.60
2019-01-22T23:25:21.121Z,26.60
2019-01-22T23:27:48.786Z,26.70
2019-01-22T23:30:16.217Z,26.70
2019-01-22T23:35:17.065Z,26.60
2019-01-22T23:37:45.064Z,26.60
2019-01-22T23:40:12.523Z,26.60
2019-01-22T23:45:44.178Z,26.50
2019-01-22T23:48:13.301Z,26.60
2019-01-22T23:50:42.266Z,26.60
2019-01-22T23:53:18.244Z,26.50
2019-01-22T23:55:45.803Z,26.50
2019-01-22T23:58:13.054Z,26.50
